Megalochari Vii — SY6064 — position and weather

sailwx.info

Track history (hours):
 
Tides and Currents Weather Stations Pressure Air Temp Water Temp Dewpoint Dewpoint Depression Visibility Wind Speed Wind Dir Waves Ship Positions

Megalochari Vii

Last reported at 2015-Apr-18 23:33 UTC. Time now 2015-Apr-18 23:38 UTC.
Position N 37°58' E 023°37'.

Length 27 m; draft 4.8 m.

Type: Tug. MMSI: 240391000.

Date/timePositionNaut miles runAvg speedWind from/ knotsBaromVisibWave heightAir tempDewpointWater temp
2015-Apr-18 23:33N 37°58' E 023°37'0 0.0
2015-Apr-18 22:33N 37°58' E 023°37'0 0.0
2015-Apr-18 21:33N 37°58' E 023°37'0 0.0
2015-Apr-18 20:33N 37°58' E 023°37'0 0.0
2015-Apr-18 19:33N 37°58' E 023°37'0 0.0
2015-Apr-18 18:33N 37°58' E 023°37'0 0.0
2015-Apr-18 17:33N 37°58' E 023°37'0 0.0
2015-Apr-18 16:33N 37°58' E 023°37'0 0.0
2015-Apr-18 15:33N 37°58' E 023°37'0 0.0
2015-Apr-18 14:33N 37°58' E 023°37'0 0.0
2015-Apr-18 13:33N 37°58' E 023°37'1 1.0
2015-Apr-18 12:33N 37°57' E 023°36'1 0.6
2015-Apr-18 11:33N 37°57' E 023°36'1 0.6
2015-Apr-18 10:33N 37°58' E 023°37'0 0.0
2015-Apr-18 09:33N 37°58' E 023°37'0 0.0
2015-Apr-18 08:33N 37°58' E 023°37'0 0.0
2015-Apr-18 07:33N 37°58' E 023°37'7 6.5
2015-Apr-18 06:33N 38°02' E 023°31'1 0.6
2015-Apr-18 05:33N 38°01' E 023°31'4 4.3
2015-Apr-18 04:33N 37°58' E 023°33'3 3.0
2015-Apr-18 03:33N 37°58' E 023°37'0 0.0
2015-Apr-18 02:33N 37°58' E 023°37'0 0.0
2015-Apr-18 01:33N 37°58' E 023°37'0 0.0
2015-Apr-18 00:33N 37°58' E 023°37'0 0.0
2015-Apr-17 23:33N 37°58' E 023°37'0 0.0
2015-Apr-17 22:33N 37°58' E 023°37'0 0.0
2015-Apr-17 21:33N 37°58' E 023°37'0 0.0
2015-Apr-17 20:33N 37°58' E 023°37'0 0.0
2015-Apr-17 19:33N 37°58' E 023°37'0 0.0
2015-Apr-17 18:33N 37°58' E 023°37'0 0.0
2015-Apr-17 17:33N 37°58' E 023°37'0 0.0
2015-Apr-17 16:33N 37°58' E 023°37'0 0.0
2015-Apr-17 15:33N 37°58' E 023°37'0 0.0
2015-Apr-17 14:33N 37°58' E 023°37'0 0.0
2015-Apr-17 13:33N 37°58' E 023°37'0 0.0
2015-Apr-17 12:33N 37°58' E 023°37'0 0.0
2015-Apr-17 11:33N 37°58' E 023°37'1 0.8
2015-Apr-17 10:33N 37°57' E 023°36'0 0.0
2015-Apr-17 09:34N 37°57' E 023°36'2 2.2
2015-Apr-17 08:33N 37°58' E 023°33'0 0.0
2015-Apr-17 07:33N 37°58' E 023°33'2 0.7
2015-Apr-17 04:33N 37°57' E 023°36'1 0.7
2015-Apr-17 03:34N 37°58' E 023°36'0 0.0
2015-Apr-16 11:29N 37°57' E 023°36'0 0.5
2015-Apr-16 10:33N 37°57' E 023°36'0 0.1
2015-Apr-16 09:32N 37°57' E 023°36'0 0.0
2015-Apr-16 08:33N 37°57' E 023°36'0 0.0
2015-Apr-16 07:33N 37°57' E 023°36'0 0.0
2015-Apr-16 06:33N 37°57' E 023°36'0 0.0
2015-Apr-16 05:33N 37°57' E 023°36'0 0.0
2015-Apr-16 04:31N 37°57' E 023°36'1 0.7
2015-Apr-16 03:33N 37°57' E 023°35'1 0.1
2015-Apr-15 11:22N 37°57' E 023°36'1 0.1
2015-Apr-15 04:33N 37°57' E 023°35'0 0.2
2015-Apr-15 03:32N 37°57' E 023°35'1 0.1
2015-Apr-14 11:08N 37°58' E 023°37'1 2.2
2015-Apr-14 10:33N 37°56' E 023°36'1 1.2
2015-Apr-14 09:34N 37°58' E 023°36'1 0.7
2015-Apr-14 08:34N 37°57' E 023°36'0 0.0
2015-Apr-14 07:33N 37°57' E 023°36'0 0.0
2015-Apr-14 06:33N 37°57' E 023°36'0 0.0
2015-Apr-14 05:33N 37°57' E 023°36'1 0.6
2015-Apr-14 04:34N 37°57' E 023°35'1 1.2
2015-Apr-14 03:34N 37°58' E 023°37'0 0.0
2015-Apr-14 02:33N 37°58' E 023°37'1 0.0
2015-Apr-13 10:34N 37°57' E 023°36'0 0.3
2015-Apr-13 09:34N 37°57' E 023°36'0 0.0
2015-Apr-13 08:33N 37°57' E 023°36'0 0.0
2015-Apr-13 07:34N 37°57' E 023°36'0 0.0
2015-Apr-13 06:33N 37°57' E 023°36'0 0.0
2015-Apr-13 05:34N 37°57' E 023°36'0 0.0
2015-Apr-13 04:33N 37°57' E 023°36'0 0.4
2015-Apr-13 03:34N 37°57' E 023°36'0 0.0
2015-Apr-13 02:33N 37°57' E 023°36'0 0.0
2015-Apr-11 16:33N 37°57' E 023°36'3 3.4
2015-Apr-11 15:33N 37°54' E 023°38'1010.2
2015-Apr-11 14:33N 37°45' E 023°45'  
Track history (hours):
 
Tides and Currents Weather Stations Pressure Air Temp Water Temp Dewpoint Dewpoint Depression Visibility Wind Speed Wind Dir Waves Ship Positions

Megalochari Vii

Last reported at 2015-Apr-18 23:33 UTC. Time now 2015-Apr-18 23:38 UTC.
Position N 37°58' E 023°37'.

Length 27 m; draft 4.8 m.

Type: Tug. MMSI: 240391000.

Date/timePositionNaut miles runAvg speedWind from/ knotsBaromVisibWave heightAir tempDewpointWater temp
2015-Apr-18 23:33N 37°58' E 023°37'0 0.0
2015-Apr-18 22:33N 37°58' E 023°37'0 0.0
2015-Apr-18 21:33N 37°58' E 023°37'0 0.0
2015-Apr-18 20:33N 37°58' E 023°37'0 0.0
2015-Apr-18 19:33N 37°58' E 023°37'0 0.0
2015-Apr-18 18:33N 37°58' E 023°37'0 0.0
2015-Apr-18 17:33N 37°58' E 023°37'0 0.0
2015-Apr-18 16:33N 37°58' E 023°37'0 0.0
2015-Apr-18 15:33N 37°58' E 023°37'0 0.0
2015-Apr-18 14:33N 37°58' E 023°37'0 0.0
2015-Apr-18 13:33N 37°58' E 023°37'1 1.0
2015-Apr-18 12:33N 37°57' E 023°36'1 0.6
2015-Apr-18 11:33N 37°57' E 023°36'1 0.6
2015-Apr-18 10:33N 37°58' E 023°37'0 0.0
2015-Apr-18 09:33N 37°58' E 023°37'0 0.0
2015-Apr-18 08:33N 37°58' E 023°37'0 0.0
2015-Apr-18 07:33N 37°58' E 023°37'7 6.5
2015-Apr-18 06:33N 38°02' E 023°31'1 0.6
2015-Apr-18 05:33N 38°01' E 023°31'4 4.3
2015-Apr-18 04:33N 37°58' E 023°33'3 3.0
2015-Apr-18 03:33N 37°58' E 023°37'0 0.0
2015-Apr-18 02:33N 37°58' E 023°37'0 0.0
2015-Apr-18 01:33N 37°58' E 023°37'0 0.0
2015-Apr-18 00:33N 37°58' E 023°37'0 0.0
2015-Apr-17 23:33N 37°58' E 023°37'0 0.0
2015-Apr-17 22:33N 37°58' E 023°37'0 0.0
2015-Apr-17 21:33N 37°58' E 023°37'0 0.0
2015-Apr-17 20:33N 37°58' E 023°37'0 0.0
2015-Apr-17 19:33N 37°58' E 023°37'0 0.0
2015-Apr-17 18:33N 37°58' E 023°37'0 0.0
2015-Apr-17 17:33N 37°58' E 023°37'0 0.0
2015-Apr-17 16:33N 37°58' E 023°37'0 0.0
2015-Apr-17 15:33N 37°58' E 023°37'0 0.0
2015-Apr-17 14:33N 37°58' E 023°37'0 0.0
2015-Apr-17 13:33N 37°58' E 023°37'0 0.0
2015-Apr-17 12:33N 37°58' E 023°37'0 0.0
2015-Apr-17 11:33N 37°58' E 023°37'1 0.8
2015-Apr-17 10:33N 37°57' E 023°36'0 0.0
2015-Apr-17 09:34N 37°57' E 023°36'2 2.2
2015-Apr-17 08:33N 37°58' E 023°33'0 0.0
2015-Apr-17 07:33N 37°58' E 023°33'2 0.7
2015-Apr-17 04:33N 37°57' E 023°36'1 0.7
2015-Apr-17 03:34N 37°58' E 023°36'0 0.0
2015-Apr-16 11:29N 37°57' E 023°36'0 0.5
2015-Apr-16 10:33N 37°57' E 023°36'0 0.1
2015-Apr-16 09:32N 37°57' E 023°36'0 0.0
2015-Apr-16 08:33N 37°57' E 023°36'0 0.0
2015-Apr-16 07:33N 37°57' E 023°36'0 0.0
2015-Apr-16 06:33N 37°57' E 023°36'0 0.0
2015-Apr-16 05:33N 37°57' E 023°36'0 0.0
2015-Apr-16 04:31N 37°57' E 023°36'1 0.7
2015-Apr-16 03:33N 37°57' E 023°35'1 0.1
2015-Apr-15 11:22N 37°57' E 023°36'1 0.1
2015-Apr-15 04:33N 37°57' E 023°35'0 0.2
2015-Apr-15 03:32N 37°57' E 023°35'1 0.1
2015-Apr-14 11:08N 37°58' E 023°37'1 2.2
2015-Apr-14 10:33N 37°56' E 023°36'1 1.2
2015-Apr-14 09:34N 37°58' E 023°36'1 0.7
2015-Apr-14 08:34N 37°57' E 023°36'0 0.0
2015-Apr-14 07:33N 37°57' E 023°36'0 0.0
2015-Apr-14 06:33N 37°57' E 023°36'0 0.0
2015-Apr-14 05:33N 37°57' E 023°36'1 0.6
2015-Apr-14 04:34N 37°57' E 023°35'1 1.2
2015-Apr-14 03:34N 37°58' E 023°37'0 0.0
2015-Apr-14 02:33N 37°58' E 023°37'1 0.0
2015-Apr-13 10:34N 37°57' E 023°36'0 0.3
2015-Apr-13 09:34N 37°57' E 023°36'0 0.0
2015-Apr-13 08:33N 37°57' E 023°36'0 0.0
2015-Apr-13 07:34N 37°57' E 023°36'0 0.0
2015-Apr-13 06:33N 37°57' E 023°36'0 0.0
2015-Apr-13 05:34N 37°57' E 023°36'0 0.0
2015-Apr-13 04:33N 37°57' E 023°36'0 0.4
2015-Apr-13 03:34N 37°57' E 023°36'0 0.0
2015-Apr-13 02:33N 37°57' E 023°36'0 0.0
2015-Apr-11 16:33N 37°57' E 023°36'3 3.4
2015-Apr-11 15:33N 37°54' E 023°38'1010.2
2015-Apr-11 14:33N 37°45' E 023°45'  

Dump ship's entire track history